createdAt,value
2023-01-31T00:01:17.053Z,101458.69
2023-01-31T00:03:45.095Z,101467.00
2023-01-31T00:06:22.246Z,101455.72
2023-01-31T00:08:50.312Z,101455.34
2023-01-31T00:11:20.795Z,101454.44
2023-01-31T00:13:47.696Z,101449.81
2023-01-31T00:16:16.155Z,101451.38
2023-01-31T00:18:43.697Z,101452.34
2023-01-31T00:21:11.451Z,101448.25
2023-01-31T00:23:39.644Z,101451.88
2023-01-31T00:26:11.703Z,101455.69
2023-01-31T00:28:39.508Z,101457.78
2023-01-31T00:31:06.753Z,101459.28
2023-01-31T00:33:35.072Z,101453.28
2023-01-31T00:36:06.796Z,101466.63
2023-01-31T00:38:33.839Z,101462.31
2023-01-31T00:41:00.952Z,101458.06
2023-01-31T00:43:28.544Z,101447.31
2023-01-31T00:45:55.043Z,101448.44
2023-01-31T00:48:23.271Z,101437.47
2023-01-31T00:50:49.830Z,101439.47
2023-01-31T00:53:18.221Z,101448.50
2023-01-31T00:55:44.751Z,101441.47
2023-01-31T00:58:11.377Z,101446.81
2023-01-31T01:00:37.985Z,101445.50
2023-01-31T01:03:04.578Z,101454.34
2023-01-31T01:05:31.137Z,101461.47
2023-01-31T01:07:57.627Z,101459.88
2023-01-31T01:10:24.245Z,101458.06
2023-01-31T01:12:50.777Z,101463.41
2023-01-31T01:15:18.172Z,101465.78
2023-01-31T01:17:45.012Z,101453.94
2023-01-31T01:20:11.799Z,101450.72
2023-01-31T01:22:39.003Z,101440.06
2023-01-31T01:25:06.272Z,101436.25
2023-01-31T01:27:32.868Z,101432.16
2023-01-31T01:29:59.414Z,101446.06
2023-01-31T01:32:25.975Z,101439.66
2023-01-31T01:34:52.544Z,101441.94
2023-01-31T01:37:21.926Z,101443.09
2023-01-31T01:39:52.394Z,101454.00
2023-01-31T01:42:24.657Z,101438.50
2023-01-31T01:45:02.109Z,101432.84
2023-01-31T01:47:33.184Z,101434.75
2023-01-31T01:50:05.791Z,101426.47
2023-01-31T01:52:38.016Z,101429.59
2023-01-31T01:55:15.820Z,101438.47
2023-01-31T01:57:44.632Z,101437.25
2023-01-31T02:00:19.845Z,101431.44
2023-01-31T02:02:47.113Z,101438.03
2023-01-31T02:05:18.145Z,101448.22
2023-01-31T02:07:45.041Z,101433.09
2023-01-31T02:10:22.638Z,101446.06
2023-01-31T02:12:49.406Z,101452.16
2023-01-31T02:15:16.097Z,101449.13
2023-01-31T02:17:42.913Z,101458.78
2023-01-31T02:20:09.579Z,101463.94
2023-01-31T02:22:51.628Z,101454.66
2023-01-31T02:25:42.527Z,101469.28
2023-01-31T02:28:27.817Z,101467.56
2023-01-31T02:31:03.918Z,101487.09
2023-01-31T02:33:46.460Z,101481.56
2023-01-31T02:36:45.204Z,101485.06
2023-01-31T02:39:39.101Z,101480.41
2023-01-31T02:42:21.380Z,101476.41
2023-01-31T02:45:06.566Z,101470.44
2023-01-31T02:47:43.194Z,101463.66
2023-01-31T02:50:26.731Z,101468.13
2023-01-31T02:53:00.081Z,101461.78
2023-01-31T02:56:18.216Z,101457.06
2023-01-31T02:59:00.727Z,101452.78
2023-01-31T03:01:31.818Z,101452.41
2023-01-31T03:04:10.356Z,101462.09
2023-01-31T03:06:36.923Z,101466.56
2023-01-31T03:09:11.204Z,101451.31
2023-01-31T03:11:46.537Z,101446.16
2023-01-31T03:14:22.048Z,101452.25
2023-01-31T03:17:23.051Z,101443.22
2023-01-31T03:20:05.266Z,101442.91
2023-01-31T03:22:48.731Z,101440.63
2023-01-31T03:25:20.067Z,101438.50
2023-01-31T03:27:52.720Z,101432.72
2023-01-31T03:30:30.517Z,101424.53
2023-01-31T03:33:07.037Z,101421.16
2023-01-31T03:35:35.467Z,101415.34
2023-01-31T03:38:10.353Z,101404.59
2023-01-31T03:41:10.826Z,101396.38
2023-01-31T03:43:50.396Z,101398.66
2023-01-31T03:46:25.981Z,101388.56
2023-01-31T03:48:55.833Z,101380.56
2023-01-31T03:51:29.036Z,101381.78
2023-01-31T03:54:01.420Z,101379.88
2023-01-31T03:56:43.051Z,101374.31
2023-01-31T03:59:20.521Z,101369.59
2023-01-31T04:01:50.026Z,101369.72
2023-01-31T04:04:32.788Z,101357.28
2023-01-31T04:07:01.244Z,101370.22
2023-01-31T04:09:28.142Z,101361.56
2023-01-31T04:11:54.849Z,101360.50
2023-01-31T04:14:21.409Z,101355.00
2023-01-31T04:16:48.185Z,101358.91
2023-01-31T04:19:14.723Z,101362.69
2023-01-31T04:21:41.301Z,101360.31
2023-01-31T04:24:10.310Z,101364.13
2023-01-31T04:26:37.327Z,101366.78
2023-01-31T04:29:04.840Z,101363.44
2023-01-31T04:31:32.147Z,101372.88
2023-01-31T04:33:59.740Z,101368.38
2023-01-31T04:36:26.481Z,101357.16
2023-01-31T04:38:53.009Z,101361.38
2023-01-31T04:41:19.552Z,101364.16
2023-01-31T04:43:46.027Z,101358.72
2023-01-31T04:46:12.573Z,101354.69
2023-01-31T04:48:40.257Z,101353.31
2023-01-31T04:51:07.439Z,101355.75
2023-01-31T04:53:34.038Z,101350.72
2023-01-31T04:56:00.571Z,101355.78
2023-01-31T04:58:27.061Z,101349.75
2023-01-31T05:00:54.542Z,101347.97
2023-01-31T05:03:21.218Z,101344.97
2023-01-31T05:05:49.116Z,101341.84
2023-01-31T05:08:16.021Z,101343.38
2023-01-31T05:10:43.013Z,101344.31
2023-01-31T05:13:10.436Z,101321.88
2023-01-31T05:15:38.207Z,101331.84
2023-01-31T05:18:04.840Z,101331.59
2023-01-31T05:20:39.666Z,101328.84
2023-01-31T05:23:07.022Z,101329.84
2023-01-31T05:25:34.960Z,101321.97
2023-01-31T05:28:01.881Z,101319.28
2023-01-31T05:30:28.842Z,101327.88
2023-01-31T05:32:55.949Z,101313.59
2023-01-31T05:35:22.852Z,101316.09
2023-01-31T05:37:49.731Z,101316.66
2023-01-31T05:40:17.373Z,101311.44
2023-01-31T05:42:44.449Z,101319.13
2023-01-31T05:45:12.056Z,101323.59
2023-01-31T05:47:38.686Z,101303.13
2023-01-31T05:50:05.730Z,101304.09
2023-01-31T05:52:32.477Z,101295.81
2023-01-31T05:54:59.008Z,101280.22
2023-01-31T05:57:25.571Z,101275.94
2023-01-31T05:59:52.058Z,101260.03
2023-01-31T06:02:18.691Z,101259.97
2023-01-31T06:04:45.267Z,101253.66
2023-01-31T06:07:11.880Z,101256.63
2023-01-31T06:09:40.341Z,101255.38
2023-01-31T06:12:07.000Z,101264.81
2023-01-31T06:14:33.847Z,101262.78
2023-01-31T06:17:00.663Z,101269.63
2023-01-31T06:19:27.220Z,101269.06
2023-01-31T06:21:53.821Z,101272.41
2023-01-31T06:24:21.098Z,101267.28
2023-01-31T06:26:47.686Z,101279.47
2023-01-31T06:29:14.348Z,101270.88
2023-01-31T06:31:45.119Z,101276.38
2023-01-31T06:34:12.117Z,101277.28
2023-01-31T06:36:38.703Z,101273.66
2023-01-31T06:39:05.523Z,101268.25
2023-01-31T06:41:33.006Z,101281.16
2023-01-31T06:43:59.703Z,101283.16
2023-01-31T06:46:26.342Z,101275.16
2023-01-31T06:48:52.947Z,101277.38
2023-01-31T06:51:19.543Z,101277.75
2023-01-31T06:53:46.166Z,101274.03
2023-01-31T06:56:12.670Z,101284.00
2023-01-31T06:58:39.920Z,101294.03
2023-01-31T07:01:09.512Z,101289.06
2023-01-31T07:03:36.392Z,101293.16
2023-01-31T07:06:03.174Z,101294.78
2023-01-31T07:08:33.833Z,101294.59
2023-01-31T07:11:02.017Z,101298.09
2023-01-31T07:13:30.261Z,101294.41
2023-01-31T07:15:57.530Z,101289.81
2023-01-31T07:18:24.277Z,101294.03
2023-01-31T07:20:51.301Z,101278.03
2023-01-31T07:23:17.907Z,101277.22
2023-01-31T07:25:44.666Z,101268.81
2023-01-31T07:28:11.990Z,101260.88
2023-01-31T07:30:39.959Z,101271.53
2023-01-31T07:33:06.574Z,101270.59
2023-01-31T07:35:33.427Z,101279.19
2023-01-31T07:37:59.982Z,101271.78
2023-01-31T07:40:26.550Z,101266.25
2023-01-31T07:42:58.887Z,101269.53
2023-01-31T07:45:26.672Z,101265.13
2023-01-31T07:47:53.463Z,101268.34
2023-01-31T07:50:20.199Z,101254.97
2023-01-31T07:52:49.175Z,101260.13
2023-01-31T07:55:15.976Z,101255.47
2023-01-31T07:57:42.501Z,101250.22
2023-01-31T08:00:29.779Z,101253.28
2023-01-31T08:03:14.993Z,101246.94
2023-01-31T08:05:41.680Z,101239.50
2023-01-31T08:08:11.101Z,101244.63
2023-01-31T08:10:38.168Z,101242.50
2023-01-31T08:13:06.213Z,101242.09
2023-01-31T08:15:33.640Z,101241.47
2023-01-31T08:18:00.150Z,101239.34
2023-01-31T08:20:26.727Z,101250.13
2023-01-31T08:22:53.322Z,101251.84
2023-01-31T08:25:20.937Z,101246.59
2023-01-31T08:27:47.647Z,101233.47
2023-01-31T08:30:14.341Z,101234.72
2023-01-31T08:32:40.893Z,101227.22
2023-01-31T08:35:07.784Z,101226.22
2023-01-31T08:37:34.685Z,101212.66
2023-01-31T08:40:01.265Z,101212.53
2023-01-31T08:42:27.793Z,101191.84
2023-01-31T08:44:54.920Z,101203.06
2023-01-31T08:47:21.458Z,101195.72
2023-01-31T08:49:47.972Z,101190.78
2023-01-31T08:52:14.498Z,101185.06
2023-01-31T08:54:41.336Z,101183.88
2023-01-31T08:57:08.068Z,101191.25
2023-01-31T08:59:34.696Z,101195.38
2023-01-31T09:02:01.231Z,101175.06
2023-01-31T09:04:27.858Z,101168.50
2023-01-31T09:06:55.148Z,101170.22
2023-01-31T09:09:21.664Z,101176.44
2023-01-31T09:11:48.145Z,101165.75
2023-01-31T09:14:14.684Z,101176.41
2023-01-31T09:16:43.233Z,101177.88
2023-01-31T09:19:10.171Z,101173.81
2023-01-31T09:21:36.747Z,101181.00
2023-01-31T09:24:03.770Z,101170.88
2023-01-31T09:26:32.175Z,101166.50
2023-01-31T09:29:01.241Z,101160.81
2023-01-31T09:31:28.533Z,101152.47
2023-01-31T09:33:55.319Z,101158.53
2023-01-31T09:36:24.748Z,101148.63
2023-01-31T09:38:56.468Z,101154.22
2023-01-31T09:41:35.059Z,101152.41
2023-01-31T09:44:06.950Z,101146.91
2023-01-31T09:46:42.017Z,101145.44
2023-01-31T09:49:17.748Z,101154.59
2023-01-31T09:51:44.548Z,101142.72
2023-01-31T09:54:21.083Z,101142.84
2023-01-31T09:57:25.767Z,101133.63
2023-01-31T10:00:13.519Z,101136.22
2023-01-31T10:02:43.046Z,101126.06
2023-01-31T10:05:32.927Z,101120.16
2023-01-31T10:08:09.723Z,101120.53
2023-01-31T10:10:44.724Z,101125.19
2023-01-31T10:13:29.247Z,101120.84
2023-01-31T10:16:16.935Z,101123.19
2023-01-31T10:18:49.608Z,101125.44
2023-01-31T10:21:25.446Z,101106.84
2023-01-31T10:24:13.712Z,101102.00
2023-01-31T10:26:43.386Z,101109.63
2023-01-31T10:29:29.293Z,101108.81
2023-01-31T10:32:04.865Z,101109.59
2023-01-31T10:35:03.910Z,101110.88
2023-01-31T10:37:45.196Z,101101.69
2023-01-31T10:40:24.013Z,101109.34
2023-01-31T10:43:16.840Z,101099.69
2023-01-31T10:45:43.664Z,101098.44
2023-01-31T10:48:25.296Z,101090.81
2023-01-31T10:51:07.062Z,101087.91
2023-01-31T10:54:05.089Z,101079.53
2023-01-31T10:56:35.812Z,101064.28
2023-01-31T10:59:07.101Z,101073.44
2023-01-31T11:01:36.851Z,101067.31
2023-01-31T11:04:22.852Z,101075.59
2023-01-31T11:06:49.425Z,101080.66
2023-01-31T11:09:16.865Z,101073.06
2023-01-31T11:12:12.892Z,101069.31
2023-01-31T11:14:39.470Z,101058.59
2023-01-31T11:17:20.555Z,101061.53
2023-01-31T11:19:52.584Z,101058.31
2023-01-31T11:22:33.750Z,101065.91
2023-01-31T11:25:04.208Z,101066.81
2023-01-31T11:27:42.379Z,101053.66
2023-01-31T11:30:23.390Z,101065.59
2023-01-31T11:32:50.225Z,101062.59
2023-01-31T11:35:16.667Z,101058.41
2023-01-31T11:38:03.945Z,101032.16
2023-01-31T11:40:35.731Z,101040.03
2023-01-31T11:43:22.633Z,101043.31
2023-01-31T11:45:59.146Z,101032.47
2023-01-31T11:48:32.902Z,101038.97
2023-01-31T11:51:03.307Z,101039.97
2023-01-31T11:53:39.104Z,101034.31
2023-01-31T11:56:16.598Z,101018.88
2023-01-31T11:58:46.747Z,101035.03
2023-01-31T12:01:18.368Z,101026.31
2023-01-31T12:04:01.839Z,101016.97
2023-01-31T12:06:31.900Z,101021.06
2023-01-31T12:08:59.890Z,101025.75
2023-01-31T12:11:33.850Z,101029.56
2023-01-31T12:14:09.397Z,101021.09
2023-01-31T12:16:37.391Z,101030.63
2023-01-31T12:19:13.070Z,101020.19
2023-01-31T12:22:03.868Z,101005.72
2023-01-31T12:24:53.564Z,100985.47
2023-01-31T12:27:41.419Z,100994.63
2023-01-31T12:30:32.150Z,100987.41
2023-01-31T12:33:17.221Z,100985.25
2023-01-31T12:36:11.714Z,100985.66
2023-01-31T12:39:04.916Z,100975.50
2023-01-31T12:41:36.874Z,100981.22
2023-01-31T12:44:16.320Z,100980.78
2023-01-31T12:47:15.160Z,100976.75
2023-01-31T12:49:47.344Z,100975.66
2023-01-31T12:52:25.761Z,100978.22
2023-01-31T12:55:11.128Z,100974.38
2023-01-31T12:57:56.506Z,100974.59
2023-01-31T13:00:37.136Z,100968.56
2023-01-31T13:03:31.623Z,100963.88
2023-01-31T13:06:06.617Z,100970.28
2023-01-31T13:08:36.788Z,100978.22
2023-01-31T13:11:19.662Z,100973.91
2023-01-31T13:13:56.244Z,100965.00
2023-01-31T13:16:28.019Z,100975.47
2023-01-31T13:18:58.208Z,100984.63
2023-01-31T13:21:29.348Z,100986.31
2023-01-31T13:24:01.934Z,100986.13
2023-01-31T13:26:35.118Z,100984.16
2023-01-31T13:29:16.079Z,100984.81
2023-01-31T13:31:47.980Z,100956.94
2023-01-31T13:34:22.743Z,100979.69
2023-01-31T13:36:55.137Z,100963.75
2023-01-31T13:39:27.377Z,100970.78
2023-01-31T13:41:53.928Z,100965.44
2023-01-31T13:44:20.938Z,100962.06
2023-01-31T13:47:01.266Z,100967.16
2023-01-31T13:49:38.215Z,100958.84
2023-01-31T13:52:15.151Z,100957.56
2023-01-31T13:54:55.610Z,100969.06
2023-01-31T13:57:34.427Z,100954.38
2023-01-31T14:00:09.568Z,100956.53
2023-01-31T14:02:36.494Z,100955.44
2023-01-31T14:05:30.057Z,100942.00
2023-01-31T14:08:45.592Z,100945.00
2023-01-31T14:11:18.962Z,100955.44
2023-01-31T14:13:50.935Z,100955.44
2023-01-31T14:16:45.960Z,100952.91
2023-01-31T14:19:24.314Z,100954.59
2023-01-31T14:22:13.711Z,100959.47
2023-01-31T14:24:49.923Z,100955.19
2023-01-31T14:27:26.523Z,100955.03
2023-01-31T14:30:10.370Z,100964.81
2023-01-31T14:32:40.243Z,100953.34
2023-01-31T14:35:12.818Z,100966.31
2023-01-31T14:38:16.836Z,100967.59
2023-01-31T14:41:05.342Z,100969.94
2023-01-31T14:43:59.162Z,100972.28
2023-01-31T14:46:51.724Z,100970.56
2023-01-31T14:49:37.774Z,100963.09
2023-01-31T14:52:36.677Z,100973.75
2023-01-31T14:55:19.081Z,100969.28
2023-01-31T14:57:49.627Z,100962.88
2023-01-31T15:00:29.532Z,100974.78
2023-01-31T15:03:15.367Z,100976.91
2023-01-31T15:05:50.826Z,100966.44
2023-01-31T15:08:19.503Z,100991.00
2023-01-31T15:11:06.804Z,100986.47
2023-01-31T15:13:40.076Z,100981.97
2023-01-31T15:16:21.798Z,100994.78
2023-01-31T15:19:01.223Z,101004.19
2023-01-31T15:21:32.381Z,101002.47
2023-01-31T15:24:00.460Z,100993.03
2023-01-31T15:26:32.680Z,100999.59
2023-01-31T15:29:02.516Z,101000.94
2023-01-31T15:31:42.643Z,100991.72
2023-01-31T15:34:31.733Z,100999.84
2023-01-31T15:37:21.549Z,101005.75
2023-01-31T15:40:00.244Z,100999.56
2023-01-31T15:42:32.565Z,100999.53
2023-01-31T15:45:35.926Z,100992.56
2023-01-31T15:48:09.182Z,100997.50
2023-01-31T15:50:35.765Z,101008.81
2023-01-31T15:53:13.524Z,101007.31
2023-01-31T15:55:41.160Z,101015.38
2023-01-31T15:58:18.126Z,101011.09
2023-01-31T16:00:44.871Z,101010.06
2023-01-31T16:03:21.957Z,101014.09
2023-01-31T16:05:51.492Z,101011.25
2023-01-31T16:08:20.635Z,101015.72
2023-01-31T16:10:48.935Z,101010.34
2023-01-31T16:13:16.588Z,101012.09
2023-01-31T16:15:43.985Z,101011.59
2023-01-31T16:18:12.140Z,101015.66
2023-01-31T16:20:50.921Z,101024.72
2023-01-31T16:23:34.029Z,101022.59
2023-01-31T16:26:12.630Z,101007.47
2023-01-31T16:28:46.860Z,101016.66
2023-01-31T16:31:18.923Z,101008.44
2023-01-31T16:33:59.953Z,101014.00
2023-01-31T16:36:33.845Z,101016.06
2023-01-31T16:39:04.466Z,101020.97
2023-01-31T16:41:51.464Z,101018.84
2023-01-31T16:44:20.511Z,101026.03
2023-01-31T16:46:49.326Z,101019.84
2023-01-31T16:49:31.526Z,101026.63
2023-01-31T16:52:18.035Z,101022.41
2023-01-31T16:54:52.900Z,101029.28
2023-01-31T16:57:38.029Z,101032.72
2023-01-31T17:00:25.493Z,101046.81
2023-01-31T17:02:54.557Z,101051.69
2023-01-31T17:05:27.766Z,101059.19
2023-01-31T17:07:55.957Z,101051.75
2023-01-31T17:10:28.947Z,101054.09
2023-01-31T17:13:01.770Z,101049.94
2023-01-31T17:15:28.641Z,101054.50
2023-01-31T17:17:56.081Z,101048.97
2023-01-31T17:20:22.749Z,101054.25
2023-01-31T17:22:57.164Z,101056.59
2023-01-31T17:25:33.446Z,101050.06
2023-01-31T17:28:00.133Z,101051.75
2023-01-31T17:30:31.270Z,101046.72
2023-01-31T17:32:58.734Z,101042.72
2023-01-31T17:35:40.926Z,101033.78
2023-01-31T17:38:07.652Z,101029.19
2023-01-31T17:40:34.445Z,101024.97
2023-01-31T17:43:03.900Z,101019.78
2023-01-31T17:45:32.374Z,101033.53
2023-01-31T17:47:59.137Z,101025.91
2023-01-31T17:50:27.677Z,101034.66
2023-01-31T17:52:54.822Z,101024.00
2023-01-31T17:55:23.974Z,101021.63
2023-01-31T17:57:51.296Z,101016.44
2023-01-31T18:00:19.742Z,101026.75
2023-01-31T18:02:46.322Z,101036.56
2023-01-31T18:05:18.638Z,101030.78
2023-01-31T18:07:49.783Z,101043.44
2023-01-31T18:10:17.341Z,101052.38
2023-01-31T18:12:43.987Z,101043.97
2023-01-31T18:15:10.955Z,101047.19
2023-01-31T18:17:37.663Z,101040.38
2023-01-31T18:20:04.664Z,101042.28
2023-01-31T18:22:31.377Z,101045.84
2023-01-31T18:24:57.873Z,101047.53
2023-01-31T18:27:24.480Z,101056.84
2023-01-31T18:29:50.954Z,101044.94
2023-01-31T18:32:19.938Z,101039.41
2023-01-31T18:34:46.789Z,101055.84
2023-01-31T18:37:19.858Z,101043.50
2023-01-31T18:39:50.962Z,101045.25
2023-01-31T18:42:18.272Z,101057.84
2023-01-31T18:44:44.958Z,101055.97
2023-01-31T18:47:12.526Z,101055.97
2023-01-31T18:49:39.220Z,101056.38
2023-01-31T18:52:06.610Z,101062.34
2023-01-31T18:54:33.819Z,101069.81
2023-01-31T18:57:00.414Z,101067.91
2023-01-31T18:59:26.979Z,101075.38
2023-01-31T19:01:53.630Z,101070.47
2023-01-31T19:04:20.974Z,101076.66
2023-01-31T19:06:51.148Z,101076.00
2023-01-31T19:09:17.834Z,101082.59
2023-01-31T19:11:45.122Z,101073.88
2023-01-31T19:14:13.557Z,101091.75
2023-01-31T19:16:41.768Z,101081.94
2023-01-31T19:19:09.665Z,101086.41
2023-01-31T19:21:37.384Z,101094.31
2023-01-31T19:24:07.182Z,101084.56
2023-01-31T19:26:34.827Z,101093.72
2023-01-31T19:29:02.480Z,101097.34
2023-01-31T19:31:31.126Z,101098.59
2023-01-31T19:34:00.191Z,101103.28
2023-01-31T19:36:46.436Z,101096.91
2023-01-31T19:39:13.648Z,101090.72
2023-01-31T19:41:42.301Z,101095.25
2023-01-31T19:44:09.628Z,101098.03
2023-01-31T19:46:37.239Z,101093.31
2023-01-31T19:49:04.605Z,101102.47
2023-01-31T19:51:32.009Z,101103.75
2023-01-31T19:54:01.472Z,101093.53
2023-01-31T19:56:28.758Z,101086.06
2023-01-31T19:58:55.503Z,101087.94
2023-01-31T20:01:22.870Z,101095.00
2023-01-31T20:03:50.146Z,101110.59
2023-01-31T20:06:21.441Z,101103.31
2023-01-31T20:08:52.360Z,101112.09
2023-01-31T20:11:19.440Z,101102.94
2023-01-31T20:13:46.199Z,101101.44
2023-01-31T20:16:13.371Z,101094.34
2023-01-31T20:18:41.470Z,101097.34
2023-01-31T20:21:14.632Z,101099.91
2023-01-31T20:23:41.793Z,101084.09
2023-01-31T20:26:11.228Z,101089.66
2023-01-31T20:28:37.863Z,101091.84
2023-01-31T20:31:07.754Z,101093.69
2023-01-31T20:33:34.373Z,101091.38
2023-01-31T20:36:01.273Z,101078.41
2023-01-31T20:38:27.865Z,101067.31
2023-01-31T20:40:55.316Z,101072.19
2023-01-31T20:43:24.088Z,101078.56
2023-01-31T20:45:51.168Z,101082.84
2023-01-31T20:48:18.612Z,101079.47
2023-01-31T20:50:54.077Z,101097.34
2023-01-31T20:53:20.789Z,101091.34
2023-01-31T20:56:01.637Z,101084.09
2023-01-31T20:58:31.882Z,101081.97
2023-01-31T21:00:59.860Z,101081.56
2023-01-31T21:03:27.475Z,101078.81
2023-01-31T21:05:56.765Z,101084.97
2023-01-31T21:08:23.295Z,101072.19
2023-01-31T21:10:54.585Z,101072.59
2023-01-31T21:13:22.817Z,101073.88
2023-01-31T21:15:54.410Z,101065.19
2023-01-31T21:18:22.099Z,101068.34
2023-01-31T21:20:49.033Z,101074.97
2023-01-31T21:23:15.713Z,101078.19
2023-01-31T21:25:42.363Z,101078.81
2023-01-31T21:28:09.177Z,101058.16
2023-01-31T21:30:36.523Z,101066.44
2023-01-31T21:33:03.133Z,101069.81
2023-01-31T21:35:30.539Z,101075.56
2023-01-31T21:37:57.121Z,101077.03
2023-01-31T21:40:23.910Z,101077.66
2023-01-31T21:42:52.240Z,101082.59
2023-01-31T21:45:38.945Z,101084.91
2023-01-31T21:48:25.882Z,101075.13
2023-01-31T21:50:52.573Z,101067.47
2023-01-31T21:53:19.113Z,101060.25
2023-01-31T21:55:45.881Z,101054.06
2023-01-31T21:58:12.370Z,101062.38
2023-01-31T22:00:39.063Z,101054.69
2023-01-31T22:03:05.577Z,101046.75
2023-01-31T22:05:32.098Z,101043.59
2023-01-31T22:07:58.579Z,101053.84
2023-01-31T22:10:25.150Z,101055.94
2023-01-31T22:12:51.704Z,101050.59
2023-01-31T22:15:18.369Z,101050.41
2023-01-31T22:17:44.876Z,101042.72
2023-01-31T22:20:11.998Z,101041.66
2023-01-31T22:22:38.559Z,101040.38
2023-01-31T22:25:05.556Z,101035.50
2023-01-31T22:27:32.075Z,101036.38
2023-01-31T22:30:06.630Z,101038.06
2023-01-31T22:32:40.667Z,101027.84
2023-01-31T22:35:07.535Z,101034.69
2023-01-31T22:37:34.129Z,101027.44
2023-01-31T22:40:00.638Z,101024.44
2023-01-31T22:42:27.183Z,101021.88
2023-01-31T22:44:53.689Z,101022.28
2023-01-31T22:47:20.283Z,101020.19
2023-01-31T22:49:46.787Z,101012.53
2023-01-31T22:52:13.458Z,101017.19
2023-01-31T22:54:39.973Z,101011.22
2023-01-31T22:57:06.550Z,101016.75
2023-01-31T22:59:33.053Z,101009.34
2023-01-31T23:01:59.599Z,100996.94
2023-01-31T23:04:26.242Z,100996.50
2023-01-31T23:06:52.801Z,100993.50
2023-01-31T23:09:19.334Z,100996.72
2023-01-31T23:11:45.915Z,100983.88
2023-01-31T23:14:12.401Z,100988.19
2023-01-31T23:16:57.199Z,100991.19
2023-01-31T23:19:23.791Z,100989.50
2023-01-31T23:21:50.289Z,100993.56
2023-01-31T23:24:18.776Z,100994.16
2023-01-31T23:26:45.387Z,100987.16
2023-01-31T23:29:12.225Z,100991.22
2023-01-31T23:31:38.877Z,100978.44
2023-01-31T23:34:07.147Z,100978.03
2023-01-31T23:36:33.727Z,100985.25
2023-01-31T23:39:00.506Z,100980.59
2023-01-31T23:41:27.058Z,100979.53
2023-01-31T23:43:53.582Z,100985.25
2023-01-31T23:46:20.122Z,100972.72
2023-01-31T23:48:46.712Z,100975.47
2023-01-31T23:51:13.213Z,100983.78
2023-01-31T23:53:39.767Z,100988.25
2023-01-31T23:56:06.689Z,100991.03
2023-01-31T23:58:33.326Z,100986.97
